sensor_id;sensor_type;location;lat;lon;timestamp;temperature;humidity
57829;DHT22;43657;52.698;6.314;2023-05-29T00:02:22;8.60;99.90
57829;DHT22;43657;52.698;6.314;2023-05-29T00:04:48;8.40;99.90
57829;DHT22;43657;52.698;6.314;2023-05-29T00:07:13;8.40;99.90
57829;DHT22;43657;52.698;6.314;2023-05-29T00:09:42;8.30;99.90
57829;DHT22;43657;52.698;6.314;2023-05-29T00:12:11;8.30;99.90
57829;DHT22;43657;52.698;6.314;2023-05-29T00:14:37;8.10;99.90
57829;DHT22;43657;52.698;6.314;2023-05-29T00:17:05;8.10;99.90
57829;DHT22;43657;52.698;6.314;2023-05-29T00:19:31;7.90;99.90
57829;DHT22;43657;52.698;6.314;2023-05-29T00:21:57;7.90;99.90
57829;DHT22;43657;52.698;6.314;2023-05-29T00:24:23;7.80;99.90
57829;DHT22;43657;52.698;6.314;2023-05-29T00:26:48;7.70;99.90
57829;DHT22;43657;52.698;6.314;2023-05-29T00:29:15;7.70;99.90
57829;DHT22;43657;52.698;6.314;2023-05-29T00:31:40;7.60;99.90
57829;DHT22;43657;52.698;6.314;2023-05-29T00:34:06;7.60;99.90
57829;DHT22;43657;52.698;6.314;2023-05-29T00:36:32;7.70;99.90
57829;DHT22;43657;52.698;6.314;2023-05-29T00:39:00;7.60;99.90
57829;DHT22;43657;52.698;6.314;2023-05-29T00:41:26;7.50;99.90
57829;DHT22;43657;52.698;6.314;2023-05-29T00:43:52;7.50;99.90
57829;DHT22;43657;52.698;6.314;2023-05-29T00:46:18;7.40;99.90
57829;DHT22;43657;52.698;6.314;2023-05-29T00:48:47;7.40;99.90
57829;DHT22;43657;52.698;6.314;2023-05-29T00:51:14;7.40;99.90
57829;DHT22;43657;52.698;6.314;2023-05-29T00:53:42;7.30;99.90
57829;DHT22;43657;52.698;6.314;2023-05-29T00:56:09;7.30;99.90
57829;DHT22;43657;52.698;6.314;2023-05-29T00:58:35;7.30;99.90
57829;DHT22;43657;52.698;6.314;2023-05-29T01:01:02;7.20;99.90
57829;DHT22;43657;52.698;6.314;2023-05-29T01:03:28;7.10;99.90
57829;DHT22;43657;52.698;6.314;2023-05-29T01:05:54;7.10;99.90
57829;DHT22;43657;52.698;6.314;2023-05-29T01:08:21;7.00;99.90
57829;DHT22;43657;52.698;6.314;2023-05-29T01:10:46;7.00;99.90
57829;DHT22;43657;52.698;6.314;2023-05-29T01:13:23;7.00;99.90
57829;DHT22;43657;52.698;6.314;2023-05-29T01:16:07;7.00;99.90
57829;DHT22;43657;52.698;6.314;2023-05-29T01:24:32;7.00;99.90
57829;DHT22;43657;52.698;6.314;2023-05-29T01:27:08;7.00;99.90
57829;DHT22;43657;52.698;6.314;2023-05-29T01:29:35;7.00;99.90
57829;DHT22;43657;52.698;6.314;2023-05-29T01:32:03;6.90;99.90
57829;DHT22;43657;52.698;6.314;2023-05-29T01:34:30;6.90;99.90
57829;DHT22;43657;52.698;6.314;2023-05-29T01:36:56;7.00;99.90
57829;DHT22;43657;52.698;6.314;2023-05-29T01:39:23;6.90;99.90
57829;DHT22;43657;52.698;6.314;2023-05-29T01:41:49;7.00;99.90
57829;DHT22;43657;52.698;6.314;2023-05-29T01:44:17;7.00;99.90
57829;DHT22;43657;52.698;6.314;2023-05-29T01:46:43;7.00;99.90
57829;DHT22;43657;52.698;6.314;2023-05-29T01:49:11;7.00;99.90
57829;DHT22;43657;52.698;6.314;2023-05-29T01:51:41;7.00;99.90
57829;DHT22;43657;52.698;6.314;2023-05-29T01:54:07;7.00;99.90
57829;DHT22;43657;52.698;6.314;2023-05-29T01:56:33;7.00;99.90
57829;DHT22;43657;52.698;6.314;2023-05-29T01:59:01;7.00;99.90
57829;DHT22;43657;52.698;6.314;2023-05-29T02:01:27;7.10;99.90
57829;DHT22;43657;52.698;6.314;2023-05-29T02:03:53;7.00;99.90
57829;DHT22;43657;52.698;6.314;2023-05-29T02:06:22;7.00;99.90
57829;DHT22;43657;52.698;6.314;2023-05-29T02:08:48;7.00;99.90
57829;DHT22;43657;52.698;6.314;2023-05-29T02:11:13;7.00;99.90
57829;DHT22;43657;52.698;6.314;2023-05-29T02:13:41;6.90;99.90
57829;DHT22;43657;52.698;6.314;2023-05-29T02:16:07;6.90;99.90
57829;DHT22;43657;52.698;6.314;2023-05-29T02:18:36;7.00;99.90
57829;DHT22;43657;52.698;6.314;2023-05-29T02:21:04;7.00;99.90
57829;DHT22;43657;52.698;6.314;2023-05-29T02:23:29;6.90;99.90
57829;DHT22;43657;52.698;6.314;2023-05-29T02:25:55;6.90;99.90
57829;DHT22;43657;52.698;6.314;2023-05-29T02:28:21;6.80;99.90
57829;DHT22;43657;52.698;6.314;2023-05-29T02:30:47;6.80;99.90
57829;DHT22;43657;52.698;6.314;2023-05-29T02:33:13;6.70;99.90
57829;DHT22;43657;52.698;6.314;2023-05-29T02:35:41;6.70;99.90
57829;DHT22;43657;52.698;6.314;2023-05-29T02:38:06;6.60;99.90
57829;DHT22;43657;52.698;6.314;2023-05-29T02:40:32;6.70;99.90
57829;DHT22;43657;52.698;6.314;2023-05-29T02:42:58;6.50;99.90
57829;DHT22;43657;52.698;6.314;2023-05-29T02:45:24;6.50;99.90
57829;DHT22;43657;52.698;6.314;2023-05-29T02:47:50;6.50;99.90
57829;DHT22;43657;52.698;6.314;2023-05-29T02:50:15;6.50;99.90
57829;DHT22;43657;52.698;6.314;2023-05-29T02:52:41;6.50;99.90
57829;DHT22;43657;52.698;6.314;2023-05-29T02:55:15;6.40;99.90
57829;DHT22;43657;52.698;6.314;2023-05-29T02:57:43;6.40;99.90
57829;DHT22;43657;52.698;6.314;2023-05-29T03:00:10;6.40;99.90
57829;DHT22;43657;52.698;6.314;2023-05-29T03:02:36;6.30;99.90
57829;DHT22;43657;52.698;6.314;2023-05-29T03:05:03;6.20;99.90
57829;DHT22;43657;52.698;6.314;2023-05-29T03:07:31;6.20;99.90
57829;DHT22;43657;52.698;6.314;2023-05-29T03:09:56;6.10;99.90
57829;DHT22;43657;52.698;6.314;2023-05-29T03:12:22;6.10;99.90
57829;DHT22;43657;52.698;6.314;2023-05-29T03:14:48;6.10;99.90
57829;DHT22;43657;52.698;6.314;2023-05-29T03:17:14;6.10;99.90
57829;DHT22;43657;52.698;6.314;2023-05-29T03:19:40;6.00;99.90
57829;DHT22;43657;52.698;6.314;2023-05-29T03:22:05;6.00;99.90
57829;DHT22;43657;52.698;6.314;2023-05-29T03:24:31;5.90;99.90
57829;DHT22;43657;52.698;6.314;2023-05-29T03:27:00;5.90;99.90
57829;DHT22;43657;52.698;6.314;2023-05-29T03:29:26;5.80;99.90
57829;DHT22;43657;52.698;6.314;2023-05-29T03:31:52;5.80;99.90
57829;DHT22;43657;52.698;6.314;2023-05-29T03:34:17;5.70;99.90
57829;DHT22;43657;52.698;6.314;2023-05-29T03:36:43;5.70;99.90
57829;DHT22;43657;52.698;6.314;2023-05-29T03:39:11;5.70;99.90
57829;DHT22;43657;52.698;6.314;2023-05-29T03:41:37;5.70;99.90
57829;DHT22;43657;52.698;6.314;2023-05-29T03:44:03;5.60;99.90
57829;DHT22;43657;52.698;6.314;2023-05-29T03:46:30;5.60;99.90
57829;DHT22;43657;52.698;6.314;2023-05-29T03:48:58;5.60;99.90
57829;DHT22;43657;52.698;6.314;2023-05-29T03:51:24;5.60;99.90
57829;DHT22;43657;52.698;6.314;2023-05-29T03:53:50;5.60;99.90
57829;DHT22;43657;52.698;6.314;2023-05-29T03:56:16;5.60;99.90
57829;DHT22;43657;52.698;6.314;2023-05-29T03:58:45;5.70;99.90
57829;DHT22;43657;52.698;6.314;2023-05-29T04:01:10;5.70;99.90
57829;DHT22;43657;52.698;6.314;2023-05-29T04:03:36;5.70;99.90
57829;DHT22;43657;52.698;6.314;2023-05-29T04:06:02;5.70;99.90
57829;DHT22;43657;52.698;6.314;2023-05-29T04:08:28;5.70;99.90
57829;DHT22;43657;52.698;6.314;2023-05-29T04:10:54;5.70;99.90
57829;DHT22;43657;52.698;6.314;2023-05-29T04:13:22;5.80;99.90
57829;DHT22;43657;52.698;6.314;2023-05-29T04:15:48;5.90;99.90
57829;DHT22;43657;52.698;6.314;2023-05-29T04:18:18;5.80;99.90
57829;DHT22;43657;52.698;6.314;2023-05-29T04:20:43;5.90;99.90
57829;DHT22;43657;52.698;6.314;2023-05-29T04:23:13;6.00;99.90
57829;DHT22;43657;52.698;6.314;2023-05-29T04:25:38;6.00;99.90
57829;DHT22;43657;52.698;6.314;2023-05-29T04:28:05;6.10;99.90
57829;DHT22;43657;52.698;6.314;2023-05-29T04:30:30;6.20;99.90
57829;DHT22;43657;52.698;6.314;2023-05-29T04:32:59;6.40;99.90
57829;DHT22;43657;52.698;6.314;2023-05-29T04:35:24;6.60;99.90
57829;DHT22;43657;52.698;6.314;2023-05-29T04:37:50;6.70;99.90
57829;DHT22;43657;52.698;6.314;2023-05-29T04:40:19;7.00;99.90
57829;DHT22;43657;52.698;6.314;2023-05-29T04:42:45;7.20;99.90
57829;DHT22;43657;52.698;6.314;2023-05-29T04:45:11;7.50;99.90
57829;DHT22;43657;52.698;6.314;2023-05-29T04:47:37;7.80;99.90
57829;DHT22;43657;52.698;6.314;2023-05-29T04:50:10;8.10;99.90
57829;DHT22;43657;52.698;6.314;2023-05-29T04:52:37;8.40;99.90
57829;DHT22;43657;52.698;6.314;2023-05-29T04:55:03;8.70;99.90
57829;DHT22;43657;52.698;6.314;2023-05-29T04:57:29;9.00;99.90
57829;DHT22;43657;52.698;6.314;2023-05-29T04:59:55;9.40;99.90
57829;DHT22;43657;52.698;6.314;2023-05-29T05:02:22;9.80;99.90
57829;DHT22;43657;52.698;6.314;2023-05-29T05:04:47;10.10;99.90
57829;DHT22;43657;52.698;6.314;2023-05-29T05:07:13;10.40;99.90
57829;DHT22;43657;52.698;6.314;2023-05-29T05:09:42;10.80;99.90
57829;DHT22;43657;52.698;6.314;2023-05-29T05:12:11;11.20;99.90
57829;DHT22;43657;52.698;6.314;2023-05-29T05:14:36;11.40;99.90
57829;DHT22;43657;52.698;6.314;2023-05-29T05:17:02;11.70;99.90
57829;DHT22;43657;52.698;6.314;2023-05-29T05:19:28;12.00;99.90
57829;DHT22;43657;52.698;6.314;2023-05-29T05:21:54;12.20;99.90
57829;DHT22;43657;52.698;6.314;2023-05-29T05:24:20;12.50;99.90
57829;DHT22;43657;52.698;6.314;2023-05-29T05:26:46;12.70;99.90
57829;DHT22;43657;52.698;6.314;2023-05-29T05:29:11;12.90;99.90
57829;DHT22;43657;52.698;6.314;2023-05-29T05:31:37;12.90;99.90
57829;DHT22;43657;52.698;6.314;2023-05-29T05:34:09;12.90;99.90
57829;DHT22;43657;52.698;6.314;2023-05-29T05:36:35;13.10;99.90
57829;DHT22;43657;52.698;6.314;2023-05-29T05:39:02;13.10;99.90
57829;DHT22;43657;52.698;6.314;2023-05-29T05:41:35;13.10;99.90
57829;DHT22;43657;52.698;6.314;2023-05-29T05:44:01;13.10;99.90
57829;DHT22;43657;52.698;6.314;2023-05-29T05:46:26;13.20;99.90
57829;DHT22;43657;52.698;6.314;2023-05-29T05:48:53;13.30;99.90
57829;DHT22;43657;52.698;6.314;2023-05-29T05:51:22;13.50;99.90
57829;DHT22;43657;52.698;6.314;2023-05-29T05:53:48;13.50;99.90
57829;DHT22;43657;52.698;6.314;2023-05-29T05:56:14;13.40;99.90
57829;DHT22;43657;52.698;6.314;2023-05-29T05:58:40;13.10;99.90
57829;DHT22;43657;52.698;6.314;2023-05-29T06:01:07;12.90;99.90
57829;DHT22;43657;52.698;6.314;2023-05-29T06:03:36;12.60;99.90
57829;DHT22;43657;52.698;6.314;2023-05-29T06:06:03;12.60;99.90
57829;DHT22;43657;52.698;6.314;2023-05-29T06:08:29;12.50;99.90
57829;DHT22;43657;52.698;6.314;2023-05-29T06:10:56;12.00;99.90
57829;DHT22;43657;52.698;6.314;2023-05-29T06:13:21;11.90;99.90
57829;DHT22;43657;52.698;6.314;2023-05-29T06:15:47;11.80;99.90
57829;DHT22;43657;52.698;6.314;2023-05-29T06:18:13;11.90;99.90
57829;DHT22;43657;52.698;6.314;2023-05-29T06:20:38;11.80;99.90
57829;DHT22;43657;52.698;6.314;2023-05-29T06:23:04;11.80;99.90
57829;DHT22;43657;52.698;6.314;2023-05-29T06:25:30;11.80;99.90
57829;DHT22;43657;52.698;6.314;2023-05-29T06:28:02;11.70;99.90
57829;DHT22;43657;52.698;6.314;2023-05-29T06:30:34;11.70;99.90
57829;DHT22;43657;52.698;6.314;2023-05-29T06:33:02;11.80;99.90
57829;DHT22;43657;52.698;6.314;2023-05-29T06:35:41;11.80;99.90
57829;DHT22;43657;52.698;6.314;2023-05-29T06:38:10;11.80;99.90
57829;DHT22;43657;52.698;6.314;2023-05-29T06:40:36;11.90;99.90
57829;DHT22;43657;52.698;6.314;2023-05-29T06:43:02;12.00;99.90
57829;DHT22;43657;52.698;6.314;2023-05-29T06:45:27;12.10;99.90
57829;DHT22;43657;52.698;6.314;2023-05-29T06:48:00;12.20;99.90
57829;DHT22;43657;52.698;6.314;2023-05-29T06:50:26;12.20;99.90
57829;DHT22;43657;52.698;6.314;2023-05-29T06:52:52;12.30;99.90
57829;DHT22;43657;52.698;6.314;2023-05-29T06:55:18;12.50;99.90
57829;DHT22;43657;52.698;6.314;2023-05-29T06:57:45;12.50;99.90
57829;DHT22;43657;52.698;6.314;2023-05-29T07:00:11;12.80;99.90
57829;DHT22;43657;52.698;6.314;2023-05-29T07:02:37;13.10;99.90
57829;DHT22;43657;52.698;6.314;2023-05-29T07:05:03;13.40;99.90
57829;DHT22;43657;52.698;6.314;2023-05-29T07:07:31;13.60;99.90
57829;DHT22;43657;52.698;6.314;2023-05-29T07:09:57;13.60;99.90
57829;DHT22;43657;52.698;6.314;2023-05-29T07:12:29;13.70;99.90
57829;DHT22;43657;52.698;6.314;2023-05-29T07:15:00;13.70;99.90
57829;DHT22;43657;52.698;6.314;2023-05-29T07:17:26;13.70;99.90
57829;DHT22;43657;52.698;6.314;2023-05-29T07:19:52;13.70;99.90
57829;DHT22;43657;52.698;6.314;2023-05-29T07:22:19;13.80;99.90
57829;DHT22;43657;52.698;6.314;2023-05-29T07:24:51;13.90;99.90
57829;DHT22;43657;52.698;6.314;2023-05-29T07:27:17;13.80;99.90
57829;DHT22;43657;52.698;6.314;2023-05-29T07:29:42;13.90;99.90
57829;DHT22;43657;52.698;6.314;2023-05-29T07:32:12;13.80;99.90
57829;DHT22;43657;52.698;6.314;2023-05-29T07:34:38;13.90;99.90
57829;DHT22;43657;52.698;6.314;2023-05-29T07:37:10;14.00;99.90
57829;DHT22;43657;52.698;6.314;2023-05-29T07:39:36;13.90;99.90
57829;DHT22;43657;52.698;6.314;2023-05-29T07:42:02;14.00;99.90
57829;DHT22;43657;52.698;6.314;2023-05-29T07:44:28;14.00;99.90
57829;DHT22;43657;52.698;6.314;2023-05-29T07:46:53;14.20;99.90
57829;DHT22;43657;52.698;6.314;2023-05-29T07:49:20;14.50;99.90
57829;DHT22;43657;52.698;6.314;2023-05-29T07:51:46;14.80;99.90
57829;DHT22;43657;52.698;6.314;2023-05-29T07:54:11;15.20;97.70
57829;DHT22;43657;52.698;6.314;2023-05-29T07:56:37;15.60;99.90
57829;DHT22;43657;52.698;6.314;2023-05-29T07:59:04;16.00;99.40
57829;DHT22;43657;52.698;6.314;2023-05-29T08:01:30;16.60;86.80
57829;DHT22;43657;52.698;6.314;2023-05-29T08:03:55;16.70;75.30
57829;DHT22;43657;52.698;6.314;2023-05-29T08:06:21;16.60;76.50
57829;DHT22;43657;52.698;6.314;2023-05-29T08:08:47;16.50;75.80
57829;DHT22;43657;52.698;6.314;2023-05-29T08:11:13;16.50;81.10
57829;DHT22;43657;52.698;6.314;2023-05-29T08:13:38;16.70;71.70
57829;DHT22;43657;52.698;6.314;2023-05-29T08:16:04;16.60;73.60
57829;DHT22;43657;52.698;6.314;2023-05-29T08:18:31;16.80;73.90
57829;DHT22;43657;52.698;6.314;2023-05-29T08:20:58;17.10;73.70
57829;DHT22;43657;52.698;6.314;2023-05-29T08:23:24;17.40;72.60
57829;DHT22;43657;52.698;6.314;2023-05-29T08:25:50;17.60;69.20
57829;DHT22;43657;52.698;6.314;2023-05-29T08:28:16;17.70;70.70
57829;DHT22;43657;52.698;6.314;2023-05-29T08:30:41;18.00;66.60
57829;DHT22;43657;52.698;6.314;2023-05-29T08:33:07;18.10;67.20
57829;DHT22;43657;52.698;6.314;2023-05-29T08:35:33;18.10;64.20
57829;DHT22;43657;52.698;6.314;2023-05-29T08:37:59;18.00;65.20
57829;DHT22;43657;52.698;6.314;2023-05-29T08:40:24;18.30;68.40
57829;DHT22;43657;52.698;6.314;2023-05-29T08:42:59;18.80;63.20
57829;DHT22;43657;52.698;6.314;2023-05-29T08:45:29;18.60;63.00
57829;DHT22;43657;52.698;6.314;2023-05-29T08:47:56;18.60;64.00
57829;DHT22;43657;52.698;6.314;2023-05-29T08:50:23;18.60;63.50
57829;DHT22;43657;52.698;6.314;2023-05-29T08:52:49;18.50;65.80
57829;DHT22;43657;52.698;6.314;2023-05-29T08:55:16;18.50;67.10
57829;DHT22;43657;52.698;6.314;2023-05-29T08:57:42;18.80;67.10
57829;DHT22;43657;52.698;6.314;2023-05-29T09:00:15;19.10;67.50
57829;DHT22;43657;52.698;6.314;2023-05-29T09:02:43;19.70;62.90
57829;DHT22;43657;52.698;6.314;2023-05-29T09:05:09;19.80;61.10
57829;DHT22;43657;52.698;6.314;2023-05-29T09:07:39;19.70;59.70
57829;DHT22;43657;52.698;6.314;2023-05-29T09:10:11;19.60;59.40
57829;DHT22;43657;52.698;6.314;2023-05-29T09:12:37;19.20;59.60
57829;DHT22;43657;52.698;6.314;2023-05-29T09:15:03;18.80;61.70
57829;DHT22;43657;52.698;6.314;2023-05-29T09:17:32;18.60;62.20
57829;DHT22;43657;52.698;6.314;2023-05-29T09:19:58;18.50;63.80
57829;DHT22;43657;52.698;6.314;2023-05-29T09:22:24;18.60;62.20
57829;DHT22;43657;52.698;6.314;2023-05-29T09:24:50;18.60;62.20
57829;DHT22;43657;52.698;6.314;2023-05-29T09:27:17;18.50;62.60
57829;DHT22;43657;52.698;6.314;2023-05-29T09:29:45;18.30;63.00
57829;DHT22;43657;52.698;6.314;2023-05-29T09:32:16;18.40;64.00
57829;DHT22;43657;52.698;6.314;2023-05-29T09:34:42;18.40;62.10
57829;DHT22;43657;52.698;6.314;2023-05-29T09:37:09;18.00;64.40
57829;DHT22;43657;52.698;6.314;2023-05-29T09:42:09;18.30;65.80
57829;DHT22;43657;52.698;6.314;2023-05-29T09:44:35;18.40;63.70
57829;DHT22;43657;52.698;6.314;2023-05-29T09:47:00;18.50;67.50
57829;DHT22;43657;52.698;6.314;2023-05-29T09:49:26;18.80;65.90
57829;DHT22;43657;52.698;6.314;2023-05-29T09:51:56;19.10;61.00
57829;DHT22;43657;52.698;6.314;2023-05-29T09:54:27;18.90;60.60
57829;DHT22;43657;52.698;6.314;2023-05-29T09:56:57;18.80;58.80
57829;DHT22;43657;52.698;6.314;2023-05-29T09:59:24;18.70;60.20
57829;DHT22;43657;52.698;6.314;2023-05-29T10:02:03;18.60;60.80
57829;DHT22;43657;52.698;6.314;2023-05-29T10:04:33;18.40;61.50
57829;DHT22;43657;52.698;6.314;2023-05-29T10:07:05;18.60;63.00
57829;DHT22;43657;52.698;6.314;2023-05-29T10:09:35;18.80;60.70
57829;DHT22;43657;52.698;6.314;2023-05-29T10:12:05;18.60;60.30
57829;DHT22;43657;52.698;6.314;2023-05-29T10:14:33;18.20;61.40
57829;DHT22;43657;52.698;6.314;2023-05-29T10:17:02;18.10;64.40
57829;DHT22;43657;52.698;6.314;2023-05-29T10:19:32;18.50;62.70
57829;DHT22;43657;52.698;6.314;2023-05-29T10:22:01;18.70;60.90
57829;DHT22;43657;52.698;6.314;2023-05-29T10:24:27;18.60;62.20
57829;DHT22;43657;52.698;6.314;2023-05-29T10:26:55;18.90;60.70
57829;DHT22;43657;52.698;6.314;2023-05-29T10:34:56;19.60;60.20
57829;DHT22;43657;52.698;6.314;2023-05-29T10:40:25;20.10;61.00
57829;DHT22;43657;52.698;6.314;2023-05-29T10:42:52;20.20;60.60
57829;DHT22;43657;52.698;6.314;2023-05-29T10:47:54;20.80;57.00
57829;DHT22;43657;52.698;6.314;2023-05-29T10:50:43;20.60;56.00
57829;DHT22;43657;52.698;6.314;2023-05-29T10:53:10;20.20;57.20
57829;DHT22;43657;52.698;6.314;2023-05-29T10:55:40;20.30;57.60
57829;DHT22;43657;52.698;6.314;2023-05-29T10:58:07;20.40;55.80
57829;DHT22;43657;52.698;6.314;2023-05-29T11:00:33;20.20;56.00
57829;DHT22;43657;52.698;6.314;2023-05-29T11:03:03;19.90;56.80
57829;DHT22;43657;52.698;6.314;2023-05-29T11:05:29;19.90;57.00
57829;DHT22;43657;52.698;6.314;2023-05-29T11:07:59;19.90;58.30
57829;DHT22;43657;52.698;6.314;2023-05-29T11:10:42;19.90;59.60
57829;DHT22;43657;52.698;6.314;2023-05-29T11:13:08;20.10;59.90
57829;DHT22;43657;52.698;6.314;2023-05-29T11:15:34;20.40;58.70
57829;DHT22;43657;52.698;6.314;2023-05-29T11:18:08;20.40;59.60
57829;DHT22;43657;52.698;6.314;2023-05-29T11:20:49;20.70;60.30
57829;DHT22;43657;52.698;6.314;2023-05-29T11:23:17;21.20;61.60
57829;DHT22;43657;52.698;6.314;2023-05-29T11:25:44;21.70;58.80
57829;DHT22;43657;52.698;6.314;2023-05-29T11:28:11;22.00;56.20
57829;DHT22;43657;52.698;6.314;2023-05-29T11:30:47;21.90;53.30
57829;DHT22;43657;52.698;6.314;2023-05-29T11:33:20;21.50;54.30
57829;DHT22;43657;52.698;6.314;2023-05-29T11:35:50;21.20;56.00
57829;DHT22;43657;52.698;6.314;2023-05-29T11:38:20;21.00;54.70
57829;DHT22;43657;52.698;6.314;2023-05-29T11:40:46;20.70;55.00
57829;DHT22;43657;52.698;6.314;2023-05-29T11:43:12;20.20;57.90
57829;DHT22;43657;52.698;6.314;2023-05-29T11:45:38;20.60;56.10
57829;DHT22;43657;52.698;6.314;2023-05-29T11:48:03;20.80;58.30
57829;DHT22;43657;52.698;6.314;2023-05-29T11:50:32;21.40;55.30
57829;DHT22;43657;52.698;6.314;2023-05-29T11:52:58;21.60;53.50
57829;DHT22;43657;52.698;6.314;2023-05-29T11:55:25;21.10;55.50
57829;DHT22;43657;52.698;6.314;2023-05-29T11:57:58;21.20;55.50
57829;DHT22;43657;52.698;6.314;2023-05-29T12:00:25;21.40;54.20
57829;DHT22;43657;52.698;6.314;2023-05-29T12:02:51;21.20;54.40
57829;DHT22;43657;52.698;6.314;2023-05-29T12:05:18;20.90;56.20
57829;DHT22;43657;52.698;6.314;2023-05-29T12:07:54;20.80;58.50
57829;DHT22;43657;52.698;6.314;2023-05-29T12:10:24;21.00;58.70
57829;DHT22;43657;52.698;6.314;2023-05-29T12:12:55;21.20;55.70
57829;DHT22;43657;52.698;6.314;2023-05-29T12:15:21;21.30;55.50
57829;DHT22;43657;52.698;6.314;2023-05-29T12:17:49;21.10;53.70
57829;DHT22;43657;52.698;6.314;2023-05-29T12:20:15;20.60;55.40
57829;DHT22;43657;52.698;6.314;2023-05-29T12:22:43;20.30;57.20
57829;DHT22;43657;52.698;6.314;2023-05-29T12:25:13;20.20;58.80
57829;DHT22;43657;52.698;6.314;2023-05-29T12:27:41;20.60;59.90
57829;DHT22;43657;52.698;6.314;2023-05-29T12:30:12;21.10;58.40
57829;DHT22;43657;52.698;6.314;2023-05-29T12:32:44;21.70;57.10
57829;DHT22;43657;52.698;6.314;2023-05-29T12:37:42;21.80;55.10
57829;DHT22;43657;52.698;6.314;2023-05-29T12:40:14;21.70;57.60
57829;DHT22;43657;52.698;6.314;2023-05-29T12:42:41;21.70;56.10
57829;DHT22;43657;52.698;6.314;2023-05-29T12:45:07;21.90;55.90
57829;DHT22;43657;52.698;6.314;2023-05-29T12:47:33;22.10;56.20
57829;DHT22;43657;52.698;6.314;2023-05-29T12:50:04;22.50;55.40
57829;DHT22;43657;52.698;6.314;2023-05-29T12:52:29;22.60;54.30
57829;DHT22;43657;52.698;6.314;2023-05-29T12:54:55;22.30;55.00
57829;DHT22;43657;52.698;6.314;2023-05-29T12:57:20;22.00;56.00
57829;DHT22;43657;52.698;6.314;2023-05-29T12:59:47;22.00;54.80
57829;DHT22;43657;52.698;6.314;2023-05-29T13:02:13;22.10;55.50
57829;DHT22;43657;52.698;6.314;2023-05-29T13:04:39;22.40;56.70
57829;DHT22;43657;52.698;6.314;2023-05-29T13:07:05;22.80;54.70
57829;DHT22;43657;52.698;6.314;2023-05-29T13:09:30;23.00;54.20
57829;DHT22;43657;52.698;6.314;2023-05-29T13:11:56;23.00;55.10
57829;DHT22;43657;52.698;6.314;2023-05-29T13:14:22;23.20;55.10
57829;DHT22;43657;52.698;6.314;2023-05-29T13:16:48;23.70;52.30
57829;DHT22;43657;52.698;6.314;2023-05-29T13:19:13;23.20;51.50
57829;DHT22;43657;52.698;6.314;2023-05-29T13:21:39;22.90;53.40
57829;DHT22;43657;52.698;6.314;2023-05-29T13:24:06;22.90;53.60
57829;DHT22;43657;52.698;6.314;2023-05-29T13:26:32;22.70;53.20
57829;DHT22;43657;52.698;6.314;2023-05-29T13:28:57;22.20;53.00
57829;DHT22;43657;52.698;6.314;2023-05-29T13:31:23;22.00;54.90
57829;DHT22;43657;52.698;6.314;2023-05-29T13:33:48;22.10;55.80
57829;DHT22;43657;52.698;6.314;2023-05-29T13:36:14;22.30;54.80
57829;DHT22;43657;52.698;6.314;2023-05-29T13:38:39;22.50;53.20
57829;DHT22;43657;52.698;6.314;2023-05-29T13:41:05;22.40;51.80
57829;DHT22;43657;52.698;6.314;2023-05-29T13:43:31;22.20;55.10
57829;DHT22;43657;52.698;6.314;2023-05-29T13:45:57;22.20;51.00
57829;DHT22;43657;52.698;6.314;2023-05-29T13:48:22;22.10;51.00
57829;DHT22;43657;52.698;6.314;2023-05-29T13:50:48;22.10;51.30
57829;DHT22;43657;52.698;6.314;2023-05-29T13:53:13;22.10;52.70
57829;DHT22;43657;52.698;6.314;2023-05-29T13:55:39;22.20;50.80
57829;DHT22;43657;52.698;6.314;2023-05-29T13:58:05;22.20;52.80
57829;DHT22;43657;52.698;6.314;2023-05-29T14:00:31;22.50;52.00
57829;DHT22;43657;52.698;6.314;2023-05-29T14:02:56;22.60;48.20
57829;DHT22;43657;52.698;6.314;2023-05-29T14:05:22;22.30;46.80
57829;DHT22;43657;52.698;6.314;2023-05-29T14:07:47;21.90;49.70
57829;DHT22;43657;52.698;6.314;2023-05-29T14:10:13;21.80;50.90
57829;DHT22;43657;52.698;6.314;2023-05-29T14:12:38;21.80;49.20
57829;DHT22;43657;52.698;6.314;2023-05-29T14:15:05;21.60;51.40
57829;DHT22;43657;52.698;6.314;2023-05-29T14:17:31;21.70;52.00
57829;DHT22;43657;52.698;6.314;2023-05-29T14:19:56;21.90;50.50
57829;DHT22;43657;52.698;6.314;2023-05-29T14:22:22;21.70;53.00
57829;DHT22;43657;52.698;6.314;2023-05-29T14:24:48;21.90;53.00
57829;DHT22;43657;52.698;6.314;2023-05-29T14:27:13;22.00;53.40
57829;DHT22;43657;52.698;6.314;2023-05-29T14:29:39;22.00;53.50
57829;DHT22;43657;52.698;6.314;2023-05-29T14:32:05;22.10;54.00
57829;DHT22;43657;52.698;6.314;2023-05-29T14:34:30;22.30;53.90
57829;DHT22;43657;52.698;6.314;2023-05-29T14:36:56;22.40;53.10
57829;DHT22;43657;52.698;6.314;2023-05-29T14:39:21;22.50;53.70
57829;DHT22;43657;52.698;6.314;2023-05-29T14:41:47;22.60;53.60
57829;DHT22;43657;52.698;6.314;2023-05-29T14:44:13;22.70;53.40
57829;DHT22;43657;52.698;6.314;2023-05-29T14:46:39;22.70;50.40
57829;DHT22;43657;52.698;6.314;2023-05-29T14:49:05;22.40;51.40
57829;DHT22;43657;52.698;6.314;2023-05-29T14:51:31;22.10;50.70
57829;DHT22;43657;52.698;6.314;2023-05-29T14:53:56;21.80;48.70
57829;DHT22;43657;52.698;6.314;2023-05-29T14:56:22;21.40;49.60
57829;DHT22;43657;52.698;6.314;2023-05-29T14:58:48;21.10;48.80
57829;DHT22;43657;52.698;6.314;2023-05-29T15:01:17;20.60;48.20
57829;DHT22;43657;52.698;6.314;2023-05-29T15:03:43;20.10;50.50
57829;DHT22;43657;52.698;6.314;2023-05-29T15:06:10;19.60;53.20
57829;DHT22;43657;52.698;6.314;2023-05-29T15:08:37;19.30;54.60
57829;DHT22;43657;52.698;6.314;2023-05-29T15:11:03;19.00;55.50
57829;DHT22;43657;52.698;6.314;2023-05-29T15:13:29;19.10;54.30
57829;DHT22;43657;52.698;6.314;2023-05-29T15:15:56;18.70;55.40
57829;DHT22;43657;52.698;6.314;2023-05-29T15:18:25;18.50;55.80
57829;DHT22;43657;52.698;6.314;2023-05-29T15:20:51;18.30;56.50
57829;DHT22;43657;52.698;6.314;2023-05-29T15:23:18;18.00;57.50
57829;DHT22;43657;52.698;6.314;2023-05-29T15:25:44;17.90;58.50
57829;DHT22;43657;52.698;6.314;2023-05-29T15:28:10;18.00;54.10
57829;DHT22;43657;52.698;6.314;2023-05-29T15:30:38;17.90;54.70
57829;DHT22;43657;52.698;6.314;2023-05-29T15:33:03;17.80;56.30
57829;DHT22;43657;52.698;6.314;2023-05-29T15:35:33;17.70;56.80
57829;DHT22;43657;52.698;6.314;2023-05-29T15:37:59;17.60;58.80
57829;DHT22;43657;52.698;6.314;2023-05-29T15:40:25;17.40;59.10
57829;DHT22;43657;52.698;6.314;2023-05-29T15:42:50;17.40;59.70
57829;DHT22;43657;52.698;6.314;2023-05-29T15:45:16;17.40;59.40
57829;DHT22;43657;52.698;6.314;2023-05-29T15:47:41;17.30;60.30
57829;DHT22;43657;52.698;6.314;2023-05-29T15:50:07;17.10;60.80
57829;DHT22;43657;52.698;6.314;2023-05-29T15:52:33;17.00;61.50
57829;DHT22;43657;52.698;6.314;2023-05-29T15:54:59;17.00;62.00
57829;DHT22;43657;52.698;6.314;2023-05-29T15:57:24;17.00;62.10